Main page
METAR-TAF:

METAR-TAF

Airports :

Houari Boumediene Airport

Algiers, Algeria

latitude: 36-43N, longitude: 003-15E, elevation: 25 m

Current weather observation

The report was made 23 minutes ago, at 00:30 UTC
Wind 3 kt from the South
Temperature 3°C
Humidity 100%
Pressure 1021 hPa
Visibility: 0500 m
Few clouds at a height of 600 ft
fog

METAR: DAAG 160030Z 19003KT 4000 0500SE R09/1900VP2000U FG FEW006 03/03 Q1021

Time: 01:53 (00:53 UTC)

Forecast

The report was made 1 hour and 53 minutes ago, at 23:00 UTC
Forecast valid from 16 at 00 UTC to 16 at 24 UTC
Wind 8 kt from the East/Northeast
Visibility: 2000 m
Few clouds at a height of 600 ft
mist
Temporary
from 16 at 00 UTC to 16 at 06 UTC
Visibility: 0400 m
fog
Becoming
from 16 at 07 UTC to 16 at 11 UTC
Wind 10 kt from the South/Southeast
Visibility: 6000 m
Becoming
from 16 at 16 UTC to 16 at 20 UTC
Wind 2 kt from variable directions

TAF: DAAG 152300Z 1600/1624 06008KT 2000 BR FEW006 TEMPO 1600/1606 0400 FG BECMG 1607/1611 16010KT 6000 NSW BECMG 1616/1620 VRB02KT

Weather observations and forecasts of more than 4000 airports (METAR and TAF reports).

The available stations are represented by yellow and red dots on the map.

Hover mouse over dot to see the name of the station.

Then click to see weather observations and forecasts.

To change the map : click on the green buttons with a black cross to zoom in, on the green button with a dash to zoom out, or on the green arrows for adjacent maps.


METAR-TAF: